sensor_id;sensor_type;location;lat;lon;timestamp;P1;durP1;ratioP1;P2;durP2;ratioP2
14732;SDS011;7457;50.960;6.830;2023-07-29T00:02:17;2.22;;;2.03;;
14732;SDS011;7457;50.960;6.830;2023-07-29T00:04:43;5.32;;;2.38;;
14732;SDS011;7457;50.960;6.830;2023-07-29T00:07:09;2.28;;;2.08;;
14732;SDS011;7457;50.960;6.830;2023-07-29T00:09:34;2.20;;;2.00;;
14732;SDS011;7457;50.960;6.830;2023-07-29T00:12:00;2.13;;;1.92;;
14732;SDS011;7457;50.960;6.830;2023-07-29T00:14:25;2.20;;;2.05;;
14732;SDS011;7457;50.960;6.830;2023-07-29T00:16:51;3.03;;;2.47;;
14732;SDS011;7457;50.960;6.830;2023-07-29T00:19:16;5.45;;;2.58;;
14732;SDS011;7457;50.960;6.830;2023-07-29T00:21:42;4.40;;;2.33;;
14732;SDS011;7457;50.960;6.830;2023-07-29T00:24:08;4.82;;;2.20;;
14732;SDS011;7457;50.960;6.830;2023-07-29T00:26:33;2.85;;;2.40;;
14732;SDS011;7457;50.960;6.830;2023-07-29T00:28:59;4.63;;;2.50;;
14732;SDS011;7457;50.960;6.830;2023-07-29T00:31:25;2.78;;;2.33;;
14732;SDS011;7457;50.960;6.830;2023-07-29T00:33:50;3.25;;;2.47;;
14732;SDS011;7457;50.960;6.830;2023-07-29T00:36:17;2.58;;;2.25;;
14732;SDS011;7457;50.960;6.830;2023-07-29T00:38:43;3.72;;;2.42;;
14732;SDS011;7457;50.960;6.830;2023-07-29T00:41:09;5.30;;;2.70;;
14732;SDS011;7457;50.960;6.830;2023-07-29T00:43:38;2.67;;;2.42;;
14732;SDS011;7457;50.960;6.830;2023-07-29T00:46:04;3.17;;;2.60;;
14732;SDS011;7457;50.960;6.830;2023-07-29T00:48:30;4.38;;;2.92;;
14732;SDS011;7457;50.960;6.830;2023-07-29T00:50:56;3.25;;;2.78;;
14732;SDS011;7457;50.960;6.830;2023-07-29T00:53:22;4.25;;;3.03;;
14732;SDS011;7457;50.960;6.830;2023-07-29T00:55:47;3.70;;;3.00;;
14732;SDS011;7457;50.960;6.830;2023-07-29T00:58:13;3.00;;;2.67;;
14732;SDS011;7457;50.960;6.830;2023-07-29T01:00:39;3.47;;;2.97;;
14732;SDS011;7457;50.960;6.830;2023-07-29T01:03:06;3.95;;;2.95;;
14732;SDS011;7457;50.960;6.830;2023-07-29T01:05:33;3.85;;;2.80;;
14732;SDS011;7457;50.960;6.830;2023-07-29T01:08:12;5.38;;;3.20;;
14732;SDS011;7457;50.960;6.830;2023-07-29T01:13:48;4.05;;;2.65;;
14732;SDS011;7457;50.960;6.830;2023-07-29T01:17:03;8.50;;;3.22;;
14732;SDS011;7457;50.960;6.830;2023-07-29T01:19:15;3.20;;;2.90;;
14732;SDS011;7457;50.960;6.830;2023-07-29T01:22:00;3.47;;;2.72;;
14732;SDS011;7457;50.960;6.830;2023-07-29T01:24:28;4.43;;;2.90;;
14732;SDS011;7457;50.960;6.830;2023-07-29T01:26:54;8.95;;;3.30;;
14732;SDS011;7457;50.960;6.830;2023-07-29T01:29:19;3.58;;;3.10;;
14732;SDS011;7457;50.960;6.830;2023-07-29T01:31:45;3.47;;;3.03;;
14732;SDS011;7457;50.960;6.830;2023-07-29T01:34:17;4.80;;;2.88;;
14732;SDS011;7457;50.960;6.830;2023-07-29T01:36:51;4.07;;;3.17;;
14732;SDS011;7457;50.960;6.830;2023-07-29T01:39:19;3.50;;;3.20;;
14732;SDS011;7457;50.960;6.830;2023-07-29T01:41:47;4.63;;;3.05;;
14732;SDS011;7457;50.960;6.830;2023-07-29T01:44:13;5.07;;;3.30;;
14732;SDS011;7457;50.960;6.830;2023-07-29T01:46:40;3.47;;;3.17;;
14732;SDS011;7457;50.960;6.830;2023-07-29T01:49:05;3.97;;;3.38;;
14732;SDS011;7457;50.960;6.830;2023-07-29T01:51:31;4.13;;;3.33;;
14732;SDS011;7457;50.960;6.830;2023-07-29T01:53:56;4.97;;;3.28;;
14732;SDS011;7457;50.960;6.830;2023-07-29T01:56:24;4.70;;;3.30;;
14732;SDS011;7457;50.960;6.830;2023-07-29T01:58:49;7.38;;;3.65;;
14732;SDS011;7457;50.960;6.830;2023-07-29T02:01:15;4.75;;;4.03;;
14732;SDS011;7457;50.960;6.830;2023-07-29T02:03:41;5.43;;;3.65;;
14732;SDS011;7457;50.960;6.830;2023-07-29T02:06:06;3.45;;;3.13;;
14732;SDS011;7457;50.960;6.830;2023-07-29T02:08:32;4.82;;;3.92;;
14732;SDS011;7457;50.960;6.830;2023-07-29T02:10:57;7.60;;;3.72;;
14732;SDS011;7457;50.960;6.830;2023-07-29T02:13:23;5.30;;;3.75;;
14732;SDS011;7457;50.960;6.830;2023-07-29T02:15:49;5.53;;;3.35;;
14732;SDS011;7457;50.960;6.830;2023-07-29T02:18:14;3.88;;;3.58;;
14732;SDS011;7457;50.960;6.830;2023-07-29T02:20:40;3.60;;;3.30;;
14732;SDS011;7457;50.960;6.830;2023-07-29T02:23:07;4.38;;;3.30;;
14732;SDS011;7457;50.960;6.830;2023-07-29T02:25:34;5.72;;;3.45;;
14732;SDS011;7457;50.960;6.830;2023-07-29T02:28:01;4.40;;;3.22;;
14732;SDS011;7457;50.960;6.830;2023-07-29T02:30:28;5.47;;;3.13;;
14732;SDS011;7457;50.960;6.830;2023-07-29T02:32:54;3.75;;;3.42;;
14732;SDS011;7457;50.960;6.830;2023-07-29T02:35:19;4.63;;;2.78;;
14732;SDS011;7457;50.960;6.830;2023-07-29T02:37:45;4.40;;;3.50;;
14732;SDS011;7457;50.960;6.830;2023-07-29T02:40:11;3.63;;;3.25;;
14732;SDS011;7457;50.960;6.830;2023-07-29T02:42:36;3.20;;;2.90;;
14732;SDS011;7457;50.960;6.830;2023-07-29T02:45:03;3.20;;;2.95;;
14732;SDS011;7457;50.960;6.830;2023-07-29T02:47:29;5.10;;;2.80;;
14732;SDS011;7457;50.960;6.830;2023-07-29T02:49:55;7.60;;;3.13;;
14732;SDS011;7457;50.960;6.830;2023-07-29T02:52:20;5.88;;;3.10;;
14732;SDS011;7457;50.960;6.830;2023-07-29T02:54:46;6.22;;;3.03;;
14732;SDS011;7457;50.960;6.830;2023-07-29T02:57:13;10.13;;;2.88;;
14732;SDS011;7457;50.960;6.830;2023-07-29T02:59:38;3.85;;;3.08;;
14732;SDS011;7457;50.960;6.830;2023-07-29T03:02:04;3.83;;;2.70;;
14732;SDS011;7457;50.960;6.830;2023-07-29T03:04:30;3.30;;;2.95;;
14732;SDS011;7457;50.960;6.830;2023-07-29T03:06:55;3.80;;;2.80;;
14732;SDS011;7457;50.960;6.830;2023-07-29T03:09:21;3.72;;;2.63;;
14732;SDS011;7457;50.960;6.830;2023-07-29T03:11:46;4.28;;;2.88;;
14732;SDS011;7457;50.960;6.830;2023-07-29T03:14:12;4.97;;;2.20;;
14732;SDS011;7457;50.960;6.830;2023-07-29T03:16:38;3.13;;;2.30;;
14732;SDS011;7457;50.960;6.830;2023-07-29T03:19:03;5.45;;;2.47;;
14732;SDS011;7457;50.960;6.830;2023-07-29T03:21:31;3.30;;;2.67;;
14732;SDS011;7457;50.960;6.830;2023-07-29T03:23:56;6.20;;;2.60;;
14732;SDS011;7457;50.960;6.830;2023-07-29T03:26:22;3.58;;;2.67;;
14732;SDS011;7457;50.960;6.830;2023-07-29T03:28:48;2.97;;;2.30;;
14732;SDS011;7457;50.960;6.830;2023-07-29T03:31:13;3.35;;;2.47;;
14732;SDS011;7457;50.960;6.830;2023-07-29T03:33:39;3.05;;;2.72;;
14732;SDS011;7457;50.960;6.830;2023-07-29T03:36:04;3.13;;;2.67;;
14732;SDS011;7457;50.960;6.830;2023-07-29T03:38:30;7.28;;;3.10;;
14732;SDS011;7457;50.960;6.830;2023-07-29T03:40:58;4.20;;;2.97;;
14732;SDS011;7457;50.960;6.830;2023-07-29T03:43:23;3.75;;;2.70;;
14732;SDS011;7457;50.960;6.830;2023-07-29T03:45:49;4.28;;;3.00;;
14732;SDS011;7457;50.960;6.830;2023-07-29T03:48:14;8.30;;;2.80;;
14732;SDS011;7457;50.960;6.830;2023-07-29T03:50:40;3.00;;;2.40;;
14732;SDS011;7457;50.960;6.830;2023-07-29T03:53:06;3.63;;;2.83;;
14732;SDS011;7457;50.960;6.830;2023-07-29T03:55:32;8.45;;;2.63;;
14732;SDS011;7457;50.960;6.830;2023-07-29T03:57:58;3.40;;;2.60;;
14732;SDS011;7457;50.960;6.830;2023-07-29T04:00:24;3.65;;;3.10;;
14732;SDS011;7457;50.960;6.830;2023-07-29T04:02:50;5.10;;;2.83;;
14732;SDS011;7457;50.960;6.830;2023-07-29T04:05:16;4.00;;;2.88;;
14732;SDS011;7457;50.960;6.830;2023-07-29T04:07:42;4.43;;;2.92;;
14732;SDS011;7457;50.960;6.830;2023-07-29T04:10:08;4.00;;;2.95;;
14732;SDS011;7457;50.960;6.830;2023-07-29T04:12:34;4.78;;;3.10;;
14732;SDS011;7457;50.960;6.830;2023-07-29T04:14:59;4.13;;;3.40;;
14732;SDS011;7457;50.960;6.830;2023-07-29T04:17:25;3.33;;;2.63;;
14732;SDS011;7457;50.960;6.830;2023-07-29T04:19:51;5.32;;;3.00;;
14732;SDS011;7457;50.960;6.830;2023-07-29T04:22:16;5.60;;;3.05;;
14732;SDS011;7457;50.960;6.830;2023-07-29T04:24:42;5.65;;;3.30;;
14732;SDS011;7457;50.960;6.830;2023-07-29T04:27:08;5.22;;;3.10;;
14732;SDS011;7457;50.960;6.830;2023-07-29T04:29:33;4.78;;;3.47;;
14732;SDS011;7457;50.960;6.830;2023-07-29T04:32:01;5.68;;;3.60;;
14732;SDS011;7457;50.960;6.830;2023-07-29T04:34:30;5.70;;;3.58;;
14732;SDS011;7457;50.960;6.830;2023-07-29T04:36:56;4.85;;;4.00;;
14732;SDS011;7457;50.960;6.830;2023-07-29T04:39:22;4.10;;;3.65;;
14732;SDS011;7457;50.960;6.830;2023-07-29T04:41:47;4.40;;;4.00;;
14732;SDS011;7457;50.960;6.830;2023-07-29T04:44:13;6.30;;;3.95;;
14732;SDS011;7457;50.960;6.830;2023-07-29T04:46:39;4.80;;;4.18;;
14732;SDS011;7457;50.960;6.830;2023-07-29T04:49:04;6.20;;;4.65;;
14732;SDS011;7457;50.960;6.830;2023-07-29T04:51:30;5.43;;;4.53;;
14732;SDS011;7457;50.960;6.830;2023-07-29T04:53:57;6.03;;;4.75;;
14732;SDS011;7457;50.960;6.830;2023-07-29T04:56:23;6.60;;;4.40;;
14732;SDS011;7457;50.960;6.830;2023-07-29T04:58:49;5.35;;;4.25;;
14732;SDS011;7457;50.960;6.830;2023-07-29T05:01:14;5.20;;;4.03;;
14732;SDS011;7457;50.960;6.830;2023-07-29T05:03:40;6.43;;;4.80;;
14732;SDS011;7457;50.960;6.830;2023-07-29T05:06:06;7.25;;;5.07;;
14732;SDS011;7457;50.960;6.830;2023-07-29T05:08:31;10.20;;;4.85;;
14732;SDS011;7457;50.960;6.830;2023-07-29T05:10:57;8.20;;;4.40;;
14732;SDS011;7457;50.960;6.830;2023-07-29T05:13:22;6.00;;;4.63;;
14732;SDS011;7457;50.960;6.830;2023-07-29T05:15:48;4.90;;;4.07;;
14732;SDS011;7457;50.960;6.830;2023-07-29T05:18:15;5.93;;;4.70;;
14732;SDS011;7457;50.960;6.830;2023-07-29T05:20:41;5.70;;;4.32;;
14732;SDS011;7457;50.960;6.830;2023-07-29T05:23:07;4.90;;;4.40;;
14732;SDS011;7457;50.960;6.830;2023-07-29T05:25:33;5.43;;;4.25;;
14732;SDS011;7457;50.960;6.830;2023-07-29T05:28:02;5.65;;;4.18;;
14732;SDS011;7457;50.960;6.830;2023-07-29T05:30:28;6.18;;;4.10;;
14732;SDS011;7457;50.960;6.830;2023-07-29T05:32:58;5.13;;;3.80;;
14732;SDS011;7457;50.960;6.830;2023-07-29T05:35:24;4.43;;;4.03;;
14732;SDS011;7457;50.960;6.830;2023-07-29T05:37:50;4.35;;;3.95;;
14732;SDS011;7457;50.960;6.830;2023-07-29T05:40:16;5.13;;;3.75;;
14732;SDS011;7457;50.960;6.830;2023-07-29T05:42:42;5.85;;;3.80;;
14732;SDS011;7457;50.960;6.830;2023-07-29T05:45:09;5.53;;;3.97;;
14732;SDS011;7457;50.960;6.830;2023-07-29T05:47:34;5.10;;;3.90;;
14732;SDS011;7457;50.960;6.830;2023-07-29T05:50:00;5.57;;;3.97;;
14732;SDS011;7457;50.960;6.830;2023-07-29T05:52:29;4.38;;;3.85;;
14732;SDS011;7457;50.960;6.830;2023-07-29T05:54:55;6.25;;;3.80;;
14732;SDS011;7457;50.960;6.830;2023-07-29T05:57:21;5.05;;;3.90;;
14732;SDS011;7457;50.960;6.830;2023-07-29T05:59:46;4.47;;;3.72;;
14732;SDS011;7457;50.960;6.830;2023-07-29T06:02:12;7.68;;;3.67;;
14732;SDS011;7457;50.960;6.830;2023-07-29T06:04:37;6.82;;;3.47;;
14732;SDS011;7457;50.960;6.830;2023-07-29T06:07:03;3.90;;;3.60;;
14732;SDS011;7457;50.960;6.830;2023-07-29T06:09:29;3.25;;;2.70;;
14732;SDS011;7457;50.960;6.830;2023-07-29T06:11:55;5.65;;;2.72;;
14732;SDS011;7457;50.960;6.830;2023-07-29T06:14:21;3.90;;;2.63;;
14732;SDS011;7457;50.960;6.830;2023-07-29T06:16:46;4.03;;;2.65;;
14732;SDS011;7457;50.960;6.830;2023-07-29T06:19:12;4.28;;;2.40;;
14732;SDS011;7457;50.960;6.830;2023-07-29T06:21:38;2.92;;;2.63;;
14732;SDS011;7457;50.960;6.830;2023-07-29T06:24:04;3.90;;;3.08;;
14732;SDS011;7457;50.960;6.830;2023-07-29T06:26:29;3.75;;;3.20;;
14732;SDS011;7457;50.960;6.830;2023-07-29T06:28:55;5.60;;;2.35;;
14732;SDS011;7457;50.960;6.830;2023-07-29T06:31:20;2.78;;;2.38;;
14732;SDS011;7457;50.960;6.830;2023-07-29T06:33:46;3.85;;;2.42;;
14732;SDS011;7457;50.960;6.830;2023-07-29T06:36:12;2.63;;;2.38;;
14732;SDS011;7457;50.960;6.830;2023-07-29T06:38:37;2.83;;;2.20;;
14732;SDS011;7457;50.960;6.830;2023-07-29T06:41:04;5.45;;;2.30;;
14732;SDS011;7457;50.960;6.830;2023-07-29T06:43:30;2.22;;;2.03;;
14732;SDS011;7457;50.960;6.830;2023-07-29T06:45:55;3.15;;;2.42;;
14732;SDS011;7457;50.960;6.830;2023-07-29T06:48:21;2.72;;;1.95;;
14732;SDS011;7457;50.960;6.830;2023-07-29T06:50:47;3.83;;;2.10;;
14732;SDS011;7457;50.960;6.830;2023-07-29T06:53:12;3.50;;;2.40;;
14732;SDS011;7457;50.960;6.830;2023-07-29T06:55:38;3.03;;;2.10;;
14732;SDS011;7457;50.960;6.830;2023-07-29T06:58:04;4.63;;;2.25;;
14732;SDS011;7457;50.960;6.830;2023-07-29T07:00:30;7.00;;;2.15;;
14732;SDS011;7457;50.960;6.830;2023-07-29T07:02:55;5.43;;;2.17;;
14732;SDS011;7457;50.960;6.830;2023-07-29T07:05:21;2.85;;;1.95;;
14732;SDS011;7457;50.960;6.830;2023-07-29T07:07:47;3.17;;;2.30;;
14732;SDS011;7457;50.960;6.830;2023-07-29T07:10:13;3.17;;;2.00;;
14732;SDS011;7457;50.960;6.830;2023-07-29T07:12:39;4.00;;;2.15;;
14732;SDS011;7457;50.960;6.830;2023-07-29T07:15:05;2.83;;;2.15;;
14732;SDS011;7457;50.960;6.830;2023-07-29T07:17:31;5.45;;;1.85;;
14732;SDS011;7457;50.960;6.830;2023-07-29T07:19:56;2.97;;;1.83;;
14732;SDS011;7457;50.960;6.830;2023-07-29T07:22:22;1.63;;;1.52;;
14732;SDS011;7457;50.960;6.830;2023-07-29T07:24:48;3.03;;;1.75;;
14732;SDS011;7457;50.960;6.830;2023-07-29T07:27:14;3.55;;;1.85;;
14732;SDS011;7457;50.960;6.830;2023-07-29T07:29:40;3.80;;;1.90;;
14732;SDS011;7457;50.960;6.830;2023-07-29T07:32:05;1.73;;;1.63;;
14732;SDS011;7457;50.960;6.830;2023-07-29T07:34:31;5.30;;;1.67;;
14732;SDS011;7457;50.960;6.830;2023-07-29T07:36:58;1.65;;;1.55;;
14732;SDS011;7457;50.960;6.830;2023-07-29T07:39:23;3.08;;;1.77;;
14732;SDS011;7457;50.960;6.830;2023-07-29T07:41:49;2.78;;;2.10;;
14732;SDS011;7457;50.960;6.830;2023-07-29T07:44:15;2.05;;;1.85;;
14732;SDS011;7457;50.960;6.830;2023-07-29T07:46:42;4.50;;;2.17;;
14732;SDS011;7457;50.960;6.830;2023-07-29T07:49:08;2.30;;;2.10;;
14732;SDS011;7457;50.960;6.830;2023-07-29T07:51:34;3.95;;;2.28;;
14732;SDS011;7457;50.960;6.830;2023-07-29T07:54:00;2.50;;;2.30;;
14732;SDS011;7457;50.960;6.830;2023-07-29T07:56:25;4.13;;;2.20;;
14732;SDS011;7457;50.960;6.830;2023-07-29T07:58:51;3.00;;;2.03;;
14732;SDS011;7457;50.960;6.830;2023-07-29T08:01:17;2.67;;;2.28;;
14732;SDS011;7457;50.960;6.830;2023-07-29T08:03:42;4.28;;;2.25;;
14732;SDS011;7457;50.960;6.830;2023-07-29T08:06:08;2.60;;;2.00;;
14732;SDS011;7457;50.960;6.830;2023-07-29T08:08:34;2.60;;;2.10;;
14732;SDS011;7457;50.960;6.830;2023-07-29T08:10:59;5.05;;;2.03;;
14732;SDS011;7457;50.960;6.830;2023-07-29T08:13:25;3.55;;;2.05;;
14732;SDS011;7457;50.960;6.830;2023-07-29T08:15:51;2.75;;;2.10;;
14732;SDS011;7457;50.960;6.830;2023-07-29T08:18:18;3.20;;;2.00;;
14732;SDS011;7457;50.960;6.830;2023-07-29T08:20:57;6.47;;;2.00;;
14732;SDS011;7457;50.960;6.830;2023-07-29T08:23:24;3.72;;;2.20;;
14732;SDS011;7457;50.960;6.830;2023-07-29T08:25:52;2.55;;;2.03;;
14732;SDS011;7457;50.960;6.830;2023-07-29T08:28:19;2.47;;;1.65;;
14732;SDS011;7457;50.960;6.830;2023-07-29T08:30:45;2.00;;;1.80;;
14732;SDS011;7457;50.960;6.830;2023-07-29T08:33:11;2.88;;;1.75;;
14732;SDS011;7457;50.960;6.830;2023-07-29T08:35:36;3.30;;;1.67;;
14732;SDS011;7457;50.960;6.830;2023-07-29T08:38:02;4.38;;;1.80;;
14732;SDS011;7457;50.960;6.830;2023-07-29T08:40:29;2.78;;;1.35;;
14732;SDS011;7457;50.960;6.830;2023-07-29T08:42:56;2.03;;;1.58;;
14732;SDS011;7457;50.960;6.830;2023-07-29T08:45:26;1.70;;;1.23;;
14732;SDS011;7457;50.960;6.830;2023-07-29T08:47:53;1.17;;;1.00;;
14732;SDS011;7457;50.960;6.830;2023-07-29T08:50:21;2.63;;;1.60;;
14732;SDS011;7457;50.960;6.830;2023-07-29T08:52:49;1.30;;;1.20;;
14732;SDS011;7457;50.960;6.830;2023-07-29T08:55:17;1.30;;;1.20;;
14732;SDS011;7457;50.960;6.830;2023-07-29T08:57:43;3.40;;;1.58;;
14732;SDS011;7457;50.960;6.830;2023-07-29T09:00:09;2.15;;;1.35;;
14732;SDS011;7457;50.960;6.830;2023-07-29T09:02:36;1.33;;;1.20;;
14732;SDS011;7457;50.960;6.830;2023-07-29T09:05:02;3.63;;;1.40;;
14732;SDS011;7457;50.960;6.830;2023-07-29T09:07:27;1.73;;;1.25;;
14732;SDS011;7457;50.960;6.830;2023-07-29T09:09:54;2.88;;;1.35;;
14732;SDS011;7457;50.960;6.830;2023-07-29T09:12:19;3.35;;;1.38;;
14732;SDS011;7457;50.960;6.830;2023-07-29T09:14:46;2.53;;;1.38;;
14732;SDS011;7457;50.960;6.830;2023-07-29T09:17:11;3.38;;;1.70;;
14732;SDS011;7457;50.960;6.830;2023-07-29T09:19:39;7.70;;;1.40;;
14732;SDS011;7457;50.960;6.830;2023-07-29T09:22:04;1.73;;;1.52;;
14732;SDS011;7457;50.960;6.830;2023-07-29T09:24:41;2.15;;;1.48;;
14732;SDS011;7457;50.960;6.830;2023-07-29T09:27:07;5.75;;;1.33;;
14732;SDS011;7457;50.960;6.830;2023-07-29T09:29:35;2.13;;;1.38;;
14732;SDS011;7457;50.960;6.830;2023-07-29T09:32:20;1.70;;;1.33;;
14732;SDS011;7457;50.960;6.830;2023-07-29T09:34:46;2.47;;;1.65;;
14732;SDS011;7457;50.960;6.830;2023-07-29T09:37:22;2.60;;;1.33;;
14732;SDS011;7457;50.960;6.830;2023-07-29T09:39:48;1.95;;;1.10;;
14732;SDS011;7457;50.960;6.830;2023-07-29T09:42:21;1.42;;;1.25;;
14732;SDS011;7457;50.960;6.830;2023-07-29T09:44:48;6.10;;;1.63;;
14732;SDS011;7457;50.960;6.830;2023-07-29T09:47:21;1.60;;;1.50;;
14732;SDS011;7457;50.960;6.830;2023-07-29T09:49:48;1.50;;;1.35;;
14732;SDS011;7457;50.960;6.830;2023-07-29T09:52:15;2.17;;;1.40;;
14732;SDS011;7457;50.960;6.830;2023-07-29T09:54:44;1.27;;;1.17;;
14732;SDS011;7457;50.960;6.830;2023-07-29T09:57:12;3.38;;;1.50;;
14732;SDS011;7457;50.960;6.830;2023-07-29T09:59:39;1.70;;;1.55;;
14732;SDS011;7457;50.960;6.830;2023-07-29T10:02:05;2.08;;;1.85;;
14732;SDS011;7457;50.960;6.830;2023-07-29T10:04:38;1.73;;;1.42;;
14732;SDS011;7457;50.960;6.830;2023-07-29T10:07:04;1.95;;;1.20;;
14732;SDS011;7457;50.960;6.830;2023-07-29T10:09:31;1.80;;;1.60;;
14732;SDS011;7457;50.960;6.830;2023-07-29T10:11:57;3.05;;;1.30;;
14732;SDS011;7457;50.960;6.830;2023-07-29T10:14:24;2.95;;;1.38;;
14732;SDS011;7457;50.960;6.830;2023-07-29T10:16:53;2.92;;;1.45;;
14732;SDS011;7457;50.960;6.830;2023-07-29T10:19:18;1.38;;;1.27;;
14732;SDS011;7457;50.960;6.830;2023-07-29T10:21:45;1.42;;;1.33;;
14732;SDS011;7457;50.960;6.830;2023-07-29T10:24:15;6.28;;;1.80;;
14732;SDS011;7457;50.960;6.830;2023-07-29T10:26:47;3.05;;;1.50;;
14732;SDS011;7457;50.960;6.830;2023-07-29T10:29:14;3.22;;;1.67;;
14732;SDS011;7457;50.960;6.830;2023-07-29T10:31:46;2.60;;;1.80;;
14732;SDS011;7457;50.960;6.830;2023-07-29T10:34:12;3.58;;;1.85;;
14732;SDS011;7457;50.960;6.830;2023-07-29T10:36:39;2.33;;;1.70;;
14732;SDS011;7457;50.960;6.830;2023-07-29T10:39:06;4.93;;;1.60;;
14732;SDS011;7457;50.960;6.830;2023-07-29T10:47:10;2.30;;;1.60;;
14732;SDS011;7457;50.960;6.830;2023-07-29T10:49:45;1.67;;;1.58;;
14732;SDS011;7457;50.960;6.830;2023-07-29T10:52:17;2.10;;;1.80;;
14732;SDS011;7457;50.960;6.830;2023-07-29T10:54:57;2.88;;;2.00;;
14732;SDS011;7457;50.960;6.830;2023-07-29T10:57:33;2.97;;;1.90;;
14732;SDS011;7457;50.960;6.830;2023-07-29T11:00:00;2.88;;;2.03;;
14732;SDS011;7457;50.960;6.830;2023-07-29T11:02:30;2.00;;;1.77;;
14732;SDS011;7457;50.960;6.830;2023-07-29T11:05:06;2.20;;;1.95;;
14732;SDS011;7457;50.960;6.830;2023-07-29T11:07:44;2.60;;;1.80;;
14732;SDS011;7457;50.960;6.830;2023-07-29T11:10:14;3.55;;;1.73;;
14732;SDS011;7457;50.960;6.830;2023-07-29T11:17:43;2.75;;;1.55;;
14732;SDS011;7457;50.960;6.830;2023-07-29T11:20:10;1.70;;;1.60;;
14732;SDS011;7457;50.960;6.830;2023-07-29T11:22:37;3.75;;;1.60;;
14732;SDS011;7457;50.960;6.830;2023-07-29T11:25:03;2.03;;;1.83;;
14732;SDS011;7457;50.960;6.830;2023-07-29T11:27:30;2.00;;;1.70;;
14732;SDS011;7457;50.960;6.830;2023-07-29T11:29:56;1.73;;;1.50;;
14732;SDS011;7457;50.960;6.830;2023-07-29T11:32:23;1.85;;;1.55;;
14732;SDS011;7457;50.960;6.830;2023-07-29T11:34:50;3.95;;;2.17;;
14732;SDS011;7457;50.960;6.830;2023-07-29T11:37:16;4.25;;;1.90;;
14732;SDS011;7457;50.960;6.830;2023-07-29T11:39:42;1.80;;;1.70;;
14732;SDS011;7457;50.960;6.830;2023-07-29T11:42:12;2.95;;;1.63;;
14732;SDS011;7457;50.960;6.830;2023-07-29T11:44:38;1.92;;;1.48;;
14732;SDS011;7457;50.960;6.830;2023-07-29T11:47:07;4.13;;;1.90;;
14732;SDS011;7457;50.960;6.830;2023-07-29T11:49:38;2.17;;;1.67;;
14732;SDS011;7457;50.960;6.830;2023-07-29T11:52:06;1.45;;;1.35;;
14732;SDS011;7457;50.960;6.830;2023-07-29T11:54:34;4.65;;;1.63;;
14732;SDS011;7457;50.960;6.830;2023-07-29T11:57:02;2.63;;;1.20;;
14732;SDS011;7457;50.960;6.830;2023-07-29T11:59:36;1.65;;;1.55;;
14732;SDS011;7457;50.960;6.830;2023-07-29T12:02:06;2.83;;;1.67;;
14732;SDS011;7457;50.960;6.830;2023-07-29T12:04:36;1.52;;;1.40;;
14732;SDS011;7457;50.960;6.830;2023-07-29T12:07:03;1.67;;;1.58;;
14732;SDS011;7457;50.960;6.830;2023-07-29T12:09:29;1.30;;;1.20;;
14732;SDS011;7457;50.960;6.830;2023-07-29T12:11:55;1.60;;;1.50;;
14732;SDS011;7457;50.960;6.830;2023-07-29T12:14:21;1.70;;;1.48;;
14732;SDS011;7457;50.960;6.830;2023-07-29T12:16:50;2.75;;;1.60;;
14732;SDS011;7457;50.960;6.830;2023-07-29T12:19:17;2.15;;;1.40;;
14732;SDS011;7457;50.960;6.830;2023-07-29T12:21:43;1.40;;;1.30;;
14732;SDS011;7457;50.960;6.830;2023-07-29T12:24:09;1.63;;;1.40;;
14732;SDS011;7457;50.960;6.830;2023-07-29T12:26:37;1.92;;;1.50;;
14732;SDS011;7457;50.960;6.830;2023-07-29T12:29:16;2.53;;;1.65;;
14732;SDS011;7457;50.960;6.830;2023-07-29T12:31:44;2.20;;;1.30;;
14732;SDS011;7457;50.960;6.830;2023-07-29T12:34:16;1.63;;;1.52;;
14732;SDS011;7457;50.960;6.830;2023-07-29T12:36:50;2.15;;;1.75;;
14732;SDS011;7457;50.960;6.830;2023-07-29T12:39:17;1.65;;;1.27;;
14732;SDS011;7457;50.960;6.830;2023-07-29T12:41:46;1.48;;;1.20;;
14732;SDS011;7457;50.960;6.830;2023-07-29T12:44:13;2.30;;;1.77;;
14732;SDS011;7457;50.960;6.830;2023-07-29T12:46:39;2.15;;;1.60;;
14732;SDS011;7457;50.960;6.830;2023-07-29T12:49:05;4.85;;;1.70;;
14732;SDS011;7457;50.960;6.830;2023-07-29T12:51:31;2.03;;;1.70;;
14732;SDS011;7457;50.960;6.830;2023-07-29T12:53:57;1.60;;;1.50;;
14732;SDS011;7457;50.960;6.830;2023-07-29T12:56:23;1.75;;;1.65;;
14732;SDS011;7457;50.960;6.830;2023-07-29T12:58:49;2.28;;;1.50;;
14732;SDS011;7457;50.960;6.830;2023-07-29T13:01:15;1.73;;;1.50;;
14732;SDS011;7457;50.960;6.830;2023-07-29T13:03:44;1.30;;;1.20;;
14732;SDS011;7457;50.960;6.830;2023-07-29T13:06:10;1.95;;;1.75;;
14732;SDS011;7457;50.960;6.830;2023-07-29T13:08:36;2.22;;;1.40;;
14732;SDS011;7457;50.960;6.830;2023-07-29T13:11:02;1.75;;;1.60;;
14732;SDS011;7457;50.960;6.830;2023-07-29T13:13:28;3.92;;;1.67;;
14732;SDS011;7457;50.960;6.830;2023-07-29T13:15:54;1.73;;;1.63;;
14732;SDS011;7457;50.960;6.830;2023-07-29T13:18:20;3.92;;;1.80;;
14732;SDS011;7457;50.960;6.830;2023-07-29T13:20:46;2.13;;;1.90;;
14732;SDS011;7457;50.960;6.830;2023-07-29T13:23:12;3.40;;;1.70;;
14732;SDS011;7457;50.960;6.830;2023-07-29T13:25:37;1.85;;;1.60;;
14732;SDS011;7457;50.960;6.830;2023-07-29T13:28:03;1.52;;;1.42;;
14732;SDS011;7457;50.960;6.830;2023-07-29T13:30:29;3.42;;;1.55;;
14732;SDS011;7457;50.960;6.830;2023-07-29T13:32:55;2.40;;;1.63;;
14732;SDS011;7457;50.960;6.830;2023-07-29T13:35:21;1.95;;;1.85;;
14732;SDS011;7457;50.960;6.830;2023-07-29T13:37:47;2.25;;;1.83;;
14732;SDS011;7457;50.960;6.830;2023-07-29T13:40:13;2.85;;;1.92;;
14732;SDS011;7457;50.960;6.830;2023-07-29T13:42:39;4.80;;;2.08;;
14732;SDS011;7457;50.960;6.830;2023-07-29T13:45:05;6.45;;;2.58;;
14732;SDS011;7457;50.960;6.830;2023-07-29T13:47:31;3.63;;;2.30;;
14732;SDS011;7457;50.960;6.830;2023-07-29T13:49:57;9.00;;;2.25;;
14732;SDS011;7457;50.960;6.830;2023-07-29T13:52:22;9.60;;;3.13;;
14732;SDS011;7457;50.960;6.830;2023-07-29T13:54:48;6.47;;;2.63;;
14732;SDS011;7457;50.960;6.830;2023-07-29T13:57:13;6.07;;;2.45;;
14732;SDS011;7457;50.960;6.830;2023-07-29T13:59:39;11.60;;;3.03;;
14732;SDS011;7457;50.960;6.830;2023-07-29T14:02:05;4.18;;;2.42;;
14732;SDS011;7457;50.960;6.830;2023-07-29T14:04:31;2.85;;;2.35;;
14732;SDS011;7457;50.960;6.830;2023-07-29T14:06:57;3.20;;;2.50;;
14732;SDS011;7457;50.960;6.830;2023-07-29T14:09:23;4.68;;;3.40;;
14732;SDS011;7457;50.960;6.830;2023-07-29T14:11:50;2.55;;;2.35;;
14732;SDS011;7457;50.960;6.830;2023-07-29T14:14:16;3.38;;;2.42;;
14732;SDS011;7457;50.960;6.830;2023-07-29T14:16:42;4.50;;;2.35;;
14732;SDS011;7457;50.960;6.830;2023-07-29T14:19:08;6.00;;;2.13;;
14732;SDS011;7457;50.960;6.830;2023-07-29T14:21:34;4.20;;;2.33;;
14732;SDS011;7457;50.960;6.830;2023-07-29T14:24:00;4.72;;;2.53;;
14732;SDS011;7457;50.960;6.830;2023-07-29T14:26:25;2.38;;;2.17;;
14732;SDS011;7457;50.960;6.830;2023-07-29T14:28:51;2.55;;;2.33;;
14732;SDS011;7457;50.960;6.830;2023-07-29T14:31:17;5.55;;;2.53;;
14732;SDS011;7457;50.960;6.830;2023-07-29T14:33:43;2.20;;;2.00;;
14732;SDS011;7457;50.960;6.830;2023-07-29T14:36:09;2.55;;;2.35;;
14732;SDS011;7457;50.960;6.830;2023-07-29T14:38:35;3.58;;;3.00;;
14732;SDS011;7457;50.960;6.830;2023-07-29T14:41:01;2.33;;;2.10;;
14732;SDS011;7457;50.960;6.830;2023-07-29T14:43:27;2.28;;;2.08;;
14732;SDS011;7457;50.960;6.830;2023-07-29T14:45:53;2.50;;;2.30;;
14732;SDS011;7457;50.960;6.830;2023-07-29T14:48:19;3.30;;;2.00;;
14732;SDS011;7457;50.960;6.830;2023-07-29T14:50:44;3.33;;;2.10;;
14732;SDS011;7457;50.960;6.830;2023-07-29T14:53:10;2.95;;;2.20;;
14732;SDS011;7457;50.960;6.830;2023-07-29T14:55:36;2.30;;;2.10;;
14732;SDS011;7457;50.960;6.830;2023-07-29T14:58:02;3.40;;;2.90;;
14732;SDS011;7457;50.960;6.830;2023-07-29T15:00:28;3.45;;;2.38;;
14732;SDS011;7457;50.960;6.830;2023-07-29T15:02:54;2.22;;;1.98;;
14732;SDS011;7457;50.960;6.830;2023-07-29T15:05:20;2.47;;;2.28;;
14732;SDS011;7457;50.960;6.830;2023-07-29T15:07:47;2.55;;;2.35;;
14732;SDS011;7457;50.960;6.830;2023-07-29T15:10:16;2.72;;;2.38;;
14732;SDS011;7457;50.960;6.830;2023-07-29T15:12:42;3.65;;;2.33;;